sensor_id;sensor_type;location;lat;lon;timestamp;pressure;altitude;pressure_sealevel;temperature
67515;BMP280;60646;55.802;37.032;2023-03-21T00:00:12;99328.69;;;8.24
67515;BMP280;60646;55.802;37.032;2023-03-21T00:02:37;99333.13;;;8.33
67515;BMP280;60646;55.802;37.032;2023-03-21T00:05:03;99321.91;;;8.23
67515;BMP280;60646;55.802;37.032;2023-03-21T00:07:29;99304.19;;;8.15
67515;BMP280;60646;55.802;37.032;2023-03-21T00:09:55;99313.41;;;8.19
67515;BMP280;60646;55.802;37.032;2023-03-21T00:12:21;99311.28;;;8.23
67515;BMP280;60646;55.802;37.032;2023-03-21T00:14:46;99311.28;;;8.23
67515;BMP280;60646;55.802;37.032;2023-03-21T00:17:12;99306.69;;;8.24
67515;BMP280;60646;55.802;37.032;2023-03-21T00:19:40;99303.44;;;8.14
67515;BMP280;60646;55.802;37.032;2023-03-21T00:22:06;99306.16;;;8.20
67515;BMP280;60646;55.802;37.032;2023-03-21T00:24:33;99295.47;;;8.14
67515;BMP280;60646;55.802;37.032;2023-03-21T00:26:59;99292.81;;;8.14
67515;BMP280;60646;55.802;37.032;2023-03-21T00:29:25;99278.72;;;8.08
67515;BMP280;60646;55.802;37.032;2023-03-21T00:31:51;99290.38;;;8.11
67515;BMP280;60646;55.802;37.032;2023-03-21T00:34:16;99290.16;;;8.14
67515;BMP280;60646;55.802;37.032;2023-03-21T00:36:42;99287.22;;;8.12
67515;BMP280;60646;55.802;37.032;2023-03-21T00:39:08;99281.91;;;8.12
67515;BMP280;60646;55.802;37.032;2023-03-21T00:41:34;99287.50;;;8.14
67515;BMP280;60646;55.802;37.032;2023-03-21T00:43:59;99281.19;;;8.17
67515;BMP280;60646;55.802;37.032;2023-03-21T00:46:26;99283.66;;;8.15
67515;BMP280;60646;55.802;37.032;2023-03-21T00:48:52;99276.63;;;8.18
67515;BMP280;60646;55.802;37.032;2023-03-21T00:51:21;99283.94;;;8.23
67515;BMP280;60646;55.802;37.032;2023-03-21T00:53:53;99266.63;;;8.07
67515;BMP280;60646;55.802;37.032;2023-03-21T00:56:19;99289.47;;;8.19
67515;BMP280;60646;55.802;37.032;2023-03-21T00:58:44;99261.31;;;8.07
67515;BMP280;60646;55.802;37.032;2023-03-21T01:01:10;99265.69;;;8.10
67515;BMP280;60646;55.802;37.032;2023-03-21T01:03:36;99274.66;;;8.13
67515;BMP280;60646;55.802;37.032;2023-03-21T01:06:10;99255.03;;;8.10
67515;BMP280;60646;55.802;37.032;2023-03-21T01:08:40;99271.09;;;8.21
67515;BMP280;60646;55.802;37.032;2023-03-21T01:11:16;99268.69;;;8.23
67515;BMP280;60646;55.802;37.032;2023-03-21T01:13:44;99252.34;;;8.05
67515;BMP280;60646;55.802;37.032;2023-03-21T01:16:10;99251.19;;;8.11
67515;BMP280;60646;55.802;37.032;2023-03-21T01:18:38;99272.75;;;8.19
67515;BMP280;60646;55.802;37.032;2023-03-21T01:21:08;99266.31;;;8.25
67515;BMP280;60646;55.802;37.032;2023-03-21T01:23:34;99272.84;;;8.24
67515;BMP280;60646;55.802;37.032;2023-03-21T01:26:00;99248.06;;;8.13
67515;BMP280;60646;55.802;37.032;2023-03-21T01:28:27;99249.44;;;8.08
67515;BMP280;60646;55.802;37.032;2023-03-21T01:30:53;99234.19;;;8.03
67515;BMP280;60646;55.802;37.032;2023-03-21T01:33:20;99269.66;;;8.20
67515;BMP280;60646;55.802;37.032;2023-03-21T01:35:45;99249.00;;;8.10
67515;BMP280;60646;55.802;37.032;2023-03-21T01:38:11;99250.69;;;8.07
67515;BMP280;60646;55.802;37.032;2023-03-21T01:40:43;99252.81;;;8.03
67515;BMP280;60646;55.802;37.032;2023-03-21T01:43:28;99259.88;;;8.06
67515;BMP280;60646;55.802;37.032;2023-03-21T01:49:04;99264.66;;;8.02
67515;BMP280;60646;55.802;37.032;2023-03-21T01:51:35;99241.28;;;7.86
67515;BMP280;60646;55.802;37.032;2023-03-21T01:54:03;99246.59;;;7.86
67515;BMP280;60646;55.802;37.032;2023-03-21T01:56:34;99258.28;;;7.94
67515;BMP280;60646;55.802;37.032;2023-03-21T01:59:12;99243.19;;;7.80
67515;BMP280;60646;55.802;37.032;2023-03-21T02:01:58;99250.72;;;7.87
67515;BMP280;60646;55.802;37.032;2023-03-21T02:04:26;99246.59;;;7.86
67515;BMP280;60646;55.802;37.032;2023-03-21T02:07:31;99256.84;;;7.93
67515;BMP280;60646;55.802;37.032;2023-03-21T02:10:10;99261.88;;;7.91
67515;BMP280;60646;55.802;37.032;2023-03-21T02:12:39;99250.22;;;7.83
67515;BMP280;60646;55.802;37.032;2023-03-21T02:15:07;99242.91;;;7.78
67515;BMP280;60646;55.802;37.032;2023-03-21T02:18:06;99259.69;;;7.90
67515;BMP280;60646;55.802;37.032;2023-03-21T02:23:45;99251.91;;;7.86
67515;BMP280;60646;55.802;37.032;2023-03-21T02:29:00;99244.44;;;7.85
67515;BMP280;60646;55.802;37.032;2023-03-21T02:31:41;99248.06;;;7.87
67515;BMP280;60646;55.802;37.032;2023-03-21T02:39:58;99211.81;;;7.84
67515;BMP280;60646;55.802;37.032;2023-03-21T02:45:14;99219.63;;;7.93
67515;BMP280;60646;55.802;37.032;2023-03-21T02:47:49;99218.69;;;7.96
67515;BMP280;60646;55.802;37.032;2023-03-21T02:52:56;99212.03;;;7.86
67515;BMP280;60646;55.802;37.032;2023-03-21T02:55:27;99207.44;;;7.87
67515;BMP280;60646;55.802;37.032;2023-03-21T02:58:01;99219.63;;;7.93
67515;BMP280;60646;55.802;37.032;2023-03-21T03:00:32;99211.38;;;7.91
67515;BMP280;60646;55.802;37.032;2023-03-21T03:02:59;99205.53;;;7.87
67515;BMP280;60646;55.802;37.032;2023-03-21T03:05:28;99219.13;;;7.95
67515;BMP280;60646;55.802;37.032;2023-03-21T03:08:01;99219.88;;;7.95
67515;BMP280;60646;55.802;37.032;2023-03-21T03:13:17;99212.63;;;7.96
67515;BMP280;60646;55.802;37.032;2023-03-21T03:15:55;99212.63;;;7.96
67515;BMP280;60646;55.802;37.032;2023-03-21T03:23:57;99189.31;;;7.85
67515;BMP280;60646;55.802;37.032;2023-03-21T03:26:33;99208.03;;;7.96
67515;BMP280;60646;55.802;37.032;2023-03-21T03:29:05;99204.16;;;7.97
67515;BMP280;60646;55.802;37.032;2023-03-21T03:31:38;99179.66;;;7.88
67515;BMP280;60646;55.802;37.032;2023-03-21T03:34:09;99179.66;;;7.88
67515;BMP280;60646;55.802;37.032;2023-03-21T03:36:42;99181.34;;;7.85
67515;BMP280;60646;55.802;37.032;2023-03-21T03:39:14;99193.78;;;7.99
67515;BMP280;60646;55.802;37.032;2023-03-21T03:41:50;99180.94;;;7.92
67515;BMP280;60646;55.802;37.032;2023-03-21T03:44:18;99175.34;;;7.90
67515;BMP280;60646;55.802;37.032;2023-03-21T03:46:57;99169.78;;;7.88
67515;BMP280;60646;55.802;37.032;2023-03-21T03:49:28;99189.47;;;8.02
67515;BMP280;60646;55.802;37.032;2023-03-21T03:52:08;99177.56;;;7.97
67515;BMP280;60646;55.802;37.032;2023-03-21T03:54:45;99188.72;;;8.01
67515;BMP280;60646;55.802;37.032;2023-03-21T03:57:12;99159.88;;;7.89
67515;BMP280;60646;55.802;37.032;2023-03-21T03:59:42;99188.28;;;8.03
67515;BMP280;60646;55.802;37.032;2023-03-21T04:02:24;99183.66;;;8.03
67515;BMP280;60646;55.802;37.032;2023-03-21T04:04:50;99165.22;;;7.94
67515;BMP280;60646;55.802;37.032;2023-03-21T04:07:20;99157.25;;;7.94
67515;BMP280;60646;55.802;37.032;2023-03-21T04:09:48;99182.22;;;8.08
67515;BMP280;60646;55.802;37.032;2023-03-21T04:12:17;99173.28;;;8.05
67515;BMP280;60646;55.802;37.032;2023-03-21T04:15:06;99183.47;;;8.12
67515;BMP280;60646;55.802;37.032;2023-03-21T04:17:33;99164.34;;;8.03
67515;BMP280;60646;55.802;37.032;2023-03-21T04:19:58;99168.47;;;8.09
67515;BMP280;60646;55.802;37.032;2023-03-21T04:22:24;99164.34;;;8.08
67515;BMP280;60646;55.802;37.032;2023-03-21T04:24:52;99154.41;;;8.03
67515;BMP280;60646;55.802;37.032;2023-03-21T04:27:18;99167.34;;;8.16
67515;BMP280;60646;55.802;37.032;2023-03-21T04:30:08;99168.81;;;8.22
67515;BMP280;60646;55.802;37.032;2023-03-21T04:32:50;99176.78;;;8.22
67515;BMP280;60646;55.802;37.032;2023-03-21T04:35:19;99163.22;;;8.15
67515;BMP280;60646;55.802;37.032;2023-03-21T04:37:45;99163.47;;;8.22
67515;BMP280;60646;55.802;37.032;2023-03-21T04:40:14;99170.53;;;8.31
67515;BMP280;60646;55.802;37.032;2023-03-21T04:43:06;99160.88;;;8.28
67515;BMP280;60646;55.802;37.032;2023-03-21T04:45:36;99185.84;;;8.42
67515;BMP280;60646;55.802;37.032;2023-03-21T04:48:03;99182.25;;;8.45
67515;BMP280;60646;55.802;37.032;2023-03-21T04:50:30;99160.38;;;8.29
67515;BMP280;60646;55.802;37.032;2023-03-21T04:52:58;99165.75;;;8.35
67515;BMP280;60646;55.802;37.032;2023-03-21T04:55:25;99175.00;;;8.51
67515;BMP280;60646;55.802;37.032;2023-03-21T04:57:54;99169.97;;;8.53
67515;BMP280;60646;55.802;37.032;2023-03-21T05:00:20;99156.59;;;8.42
67515;BMP280;60646;55.802;37.032;2023-03-21T05:02:50;99146.19;;;8.38
67515;BMP280;60646;55.802;37.032;2023-03-21T05:05:16;99160.03;;;8.48
67515;BMP280;60646;55.802;37.032;2023-03-21T05:07:42;99181.13;;;8.62
67515;BMP280;60646;55.802;37.032;2023-03-21T05:10:27;99175.78;;;8.62
67515;BMP280;60646;55.802;37.032;2023-03-21T05:12:53;99177.03;;;8.67
67515;BMP280;60646;55.802;37.032;2023-03-21T05:15:38;99160.28;;;8.55
67515;BMP280;60646;55.802;37.032;2023-03-21T05:18:07;99159.81;;;8.62
67515;BMP280;60646;55.802;37.032;2023-03-21T05:21:01;99177.56;;;8.76
67515;BMP280;60646;55.802;37.032;2023-03-21T05:23:32;99164.47;;;8.73
67515;BMP280;60646;55.802;37.032;2023-03-21T05:26:08;99156.75;;;8.75
67515;BMP280;60646;55.802;37.032;2023-03-21T05:28:57;99137.09;;;8.61
67515;BMP280;60646;55.802;37.032;2023-03-21T05:31:41;99167.66;;;8.77
67515;BMP280;60646;55.802;37.032;2023-03-21T05:34:12;99164.03;;;8.80
67515;BMP280;60646;55.802;37.032;2023-03-21T05:36:39;99171.31;;;8.85
67515;BMP280;60646;55.802;37.032;2023-03-21T05:39:07;99154.34;;;8.77
67515;BMP280;60646;55.802;37.032;2023-03-21T05:41:37;99165.97;;;8.85
67515;BMP280;60646;55.802;37.032;2023-03-21T05:44:04;99145.34;;;8.69
67515;BMP280;60646;55.802;37.032;2023-03-21T05:46:30;99156.28;;;8.76
67515;BMP280;60646;55.802;37.032;2023-03-21T05:48:56;99148.25;;;8.71
67515;BMP280;60646;55.802;37.032;2023-03-21T05:51:23;99152.63;;;8.74
67515;BMP280;60646;55.802;37.032;2023-03-21T05:53:49;99147.78;;;8.72
67515;BMP280;60646;55.802;37.032;2023-03-21T05:56:16;99174.72;;;8.91
67515;BMP280;60646;55.802;37.032;2023-03-21T05:58:55;99158.00;;;8.85
67515;BMP280;60646;55.802;37.032;2023-03-21T06:01:22;99155.31;;;8.85
67515;BMP280;60646;55.802;37.032;2023-03-21T06:03:59;99158.75;;;8.91
67515;BMP280;60646;55.802;37.032;2023-03-21T06:06:27;99153.41;;;8.91
67515;BMP280;60646;55.802;37.032;2023-03-21T06:08:55;99151.75;;;8.94
67515;BMP280;60646;55.802;37.032;2023-03-21T06:11:25;99167.50;;;9.08
67515;BMP280;60646;55.802;37.032;2023-03-21T06:14:06;99151.03;;;9.04
67515;BMP280;60646;55.802;37.032;2023-03-21T06:16:32;99150.06;;;9.07
67515;BMP280;60646;55.802;37.032;2023-03-21T06:19:01;99147.19;;;9.16
67515;BMP280;60646;55.802;37.032;2023-03-21T06:21:48;99155.66;;;9.26
67515;BMP280;60646;55.802;37.032;2023-03-21T06:24:14;99136.78;;;9.18
67515;BMP280;60646;55.802;37.032;2023-03-21T06:26:40;99161.75;;;9.37
67515;BMP280;60646;55.802;37.032;2023-03-21T06:29:08;99147.19;;;9.27
67515;BMP280;60646;55.802;37.032;2023-03-21T06:31:34;99161.25;;;9.44
67515;BMP280;60646;55.802;37.032;2023-03-21T06:34:02;99143.34;;;9.39
67515;BMP280;60646;55.802;37.032;2023-03-21T06:36:28;99150.16;;;9.52
67515;BMP280;60646;55.802;37.032;2023-03-21T06:38:54;99134.88;;;9.47
67515;BMP280;60646;55.802;37.032;2023-03-21T06:41:20;99132.44;;;9.54
67515;BMP280;60646;55.802;37.032;2023-03-21T06:47:33;99138.00;;;9.73
67515;BMP280;60646;55.802;37.032;2023-03-21T06:50:17;99127.84;;;9.77
67515;BMP280;60646;55.802;37.032;2023-03-21T06:52:43;99133.44;;;9.84
67515;BMP280;60646;55.802;37.032;2023-03-21T06:55:11;99113.75;;;9.82
67515;BMP280;60646;55.802;37.032;2023-03-21T06:57:38;99115.94;;;9.89
67515;BMP280;60646;55.802;37.032;2023-03-21T07:00:05;99109.16;;;9.88
67515;BMP280;60646;55.802;37.032;2023-03-21T07:02:34;99117.63;;;9.97
67515;BMP280;60646;55.802;37.032;2023-03-21T07:05:15;99112.75;;;10.07
67515;BMP280;60646;55.802;37.032;2023-03-21T07:07:42;99114.69;;;10.12
67515;BMP280;60646;55.802;37.032;2023-03-21T07:10:08;99115.66;;;10.20
67515;BMP280;60646;55.802;37.032;2023-03-21T07:12:53;99115.84;;;10.28
67515;BMP280;60646;55.802;37.032;2023-03-21T07:15:21;99109.56;;;10.25
67515;BMP280;60646;55.802;37.032;2023-03-21T07:17:47;99119.19;;;10.39
67515;BMP280;60646;55.802;37.032;2023-03-21T07:20:13;99119.94;;;10.45
67515;BMP280;60646;55.802;37.032;2023-03-21T07:22:43;99110.16;;;10.53
67515;BMP280;60646;55.802;37.032;2023-03-21T07:25:10;99090.78;;;10.47
67515;BMP280;60646;55.802;37.032;2023-03-21T07:27:38;99089.25;;;10.57
67515;BMP280;60646;55.802;37.032;2023-03-21T07:30:06;99097.22;;;10.69
67515;BMP280;60646;55.802;37.032;2023-03-21T07:32:35;99102.75;;;10.82
67515;BMP280;60646;55.802;37.032;2023-03-21T07:35:04;99096.84;;;10.89
67515;BMP280;60646;55.802;37.032;2023-03-21T07:37:56;99092.66;;;10.99
67515;BMP280;60646;55.802;37.032;2023-03-21T07:40:22;99096.06;;;10.99
67515;BMP280;60646;55.802;37.032;2023-03-21T07:42:49;99087.28;;;11.04
67515;BMP280;60646;55.802;37.032;2023-03-21T07:45:27;99067.41;;;11.00
67515;BMP280;60646;55.802;37.032;2023-03-21T07:47:53;99083.34;;;11.11
67515;BMP280;60646;55.802;37.032;2023-03-21T07:50:19;99060.06;;;11.06
67515;BMP280;60646;55.802;37.032;2023-03-21T07:52:45;99059.84;;;11.04
67515;BMP280;60646;55.802;37.032;2023-03-21T07:55:12;99081.59;;;11.19
67515;BMP280;60646;55.802;37.032;2023-03-21T07:57:38;99078.47;;;11.15
67515;BMP280;60646;55.802;37.032;2023-03-21T08:00:04;99082.84;;;11.18
67515;BMP280;60646;55.802;37.032;2023-03-21T08:02:38;99075.81;;;11.15
67515;BMP280;60646;55.802;37.032;2023-03-21T08:05:04;99073.78;;;11.21
67515;BMP280;60646;55.802;37.032;2023-03-21T08:07:30;99083.69;;;11.32
67515;BMP280;60646;55.802;37.032;2023-03-21T08:09:56;99077.88;;;11.28
67515;BMP280;60646;55.802;37.032;2023-03-21T08:12:22;99091.66;;;11.37
67515;BMP280;60646;55.802;37.032;2023-03-21T08:14:48;99075.94;;;11.28
67515;BMP280;60646;55.802;37.032;2023-03-21T08:17:14;99072.69;;;11.35
67515;BMP280;60646;55.802;37.032;2023-03-21T08:19:39;99075.84;;;11.39
67515;BMP280;60646;55.802;37.032;2023-03-21T08:22:05;99077.97;;;11.46
67515;BMP280;60646;55.802;37.032;2023-03-21T08:24:31;99078.16;;;11.54
67515;BMP280;60646;55.802;37.032;2023-03-21T08:27:00;99056.13;;;11.42
67515;BMP280;60646;55.802;37.032;2023-03-21T08:29:26;99080.97;;;11.61
67515;BMP280;60646;55.802;37.032;2023-03-21T08:31:52;99073.16;;;11.63
67515;BMP280;60646;55.802;37.032;2023-03-21T08:34:19;99078.53;;;11.63
67515;BMP280;60646;55.802;37.032;2023-03-21T08:36:47;99079.22;;;11.69
67515;BMP280;60646;55.802;37.032;2023-03-21T08:39:14;99073.56;;;11.73
67515;BMP280;60646;55.802;37.032;2023-03-21T08:41:40;99067.22;;;11.76
67515;BMP280;60646;55.802;37.032;2023-03-21T08:44:06;99058.97;;;11.74
67515;BMP280;60646;55.802;37.032;2023-03-21T08:46:33;99051.44;;;11.73
67515;BMP280;60646;55.802;37.032;2023-03-21T08:48:59;99050.44;;;11.76
67515;BMP280;60646;55.802;37.032;2023-03-21T08:51:26;99056.13;;;11.91
67515;BMP280;60646;55.802;37.032;2023-03-21T08:53:52;99029.47;;;11.80
67515;BMP280;60646;55.802;37.032;2023-03-21T08:56:18;99044.13;;;11.97
67515;BMP280;60646;55.802;37.032;2023-03-21T08:58:44;99031.25;;;11.96
67515;BMP280;60646;55.802;37.032;2023-03-21T09:01:10;99044.94;;;12.11
67515;BMP280;60646;55.802;37.032;2023-03-21T09:03:40;99053.25;;;12.26
67515;BMP280;60646;55.802;37.032;2023-03-21T09:06:08;99031.09;;;12.25
67515;BMP280;60646;55.802;37.032;2023-03-21T09:08:40;99041.81;;;12.44
67515;BMP280;60646;55.802;37.032;2023-03-21T09:11:15;99048.00;;;12.52
67515;BMP280;60646;55.802;37.032;2023-03-21T09:13:40;99044.84;;;12.54
67515;BMP280;60646;55.802;37.032;2023-03-21T09:16:07;99041.03;;;12.62
67515;BMP280;60646;55.802;37.032;2023-03-21T09:18:33;99045.84;;;12.69
67515;BMP280;60646;55.802;37.032;2023-03-21T09:21:15;99049.28;;;12.83
67515;BMP280;60646;55.802;37.032;2023-03-21T09:23:42;99043.63;;;12.86
67515;BMP280;60646;55.802;37.032;2023-03-21T09:26:09;99046.34;;;13.00
67515;BMP280;60646;55.802;37.032;2023-03-21T09:28:36;99028.81;;;12.99
67515;BMP280;60646;55.802;37.032;2023-03-21T09:31:04;99039.78;;;13.14
67515;BMP280;60646;55.802;37.032;2023-03-21T09:33:31;99036.69;;;13.23
67515;BMP280;60646;55.802;37.032;2023-03-21T09:35:57;99043.38;;;13.29
67515;BMP280;60646;55.802;37.032;2023-03-21T09:38:25;99024.94;;;13.26
67515;BMP280;60646;55.802;37.032;2023-03-21T09:41:14;99036.06;;;13.43
67515;BMP280;60646;55.802;37.032;2023-03-21T09:46:41;99029.56;;;13.51
67515;BMP280;60646;55.802;37.032;2023-03-21T09:49:18;99007.19;;;13.36
67515;BMP280;60646;55.802;37.032;2023-03-21T09:51:48;99023.50;;;13.51
67515;BMP280;60646;55.802;37.032;2023-03-21T09:54:34;99019.34;;;13.63
67515;BMP280;60646;55.802;37.032;2023-03-21T09:57:13;99023.66;;;13.66
67515;BMP280;60646;55.802;37.032;2023-03-21T09:59:45;99026.56;;;13.68
67515;BMP280;60646;55.802;37.032;2023-03-21T10:02:37;99015.94;;;13.76
67515;BMP280;60646;55.802;37.032;2023-03-21T10:05:30;99018.69;;;13.83
67515;BMP280;60646;55.802;37.032;2023-03-21T10:07:58;99015.19;;;13.88
67515;BMP280;60646;55.802;37.032;2023-03-21T10:10:39;99005.28;;;13.83
67515;BMP280;60646;55.802;37.032;2023-03-21T10:13:14;99005.06;;;13.94
67515;BMP280;60646;55.802;37.032;2023-03-21T10:15:41;98992.59;;;13.84
67515;BMP280;60646;55.802;37.032;2023-03-21T10:18:12;99000.88;;;14.06
67515;BMP280;60646;55.802;37.032;2023-03-21T10:20:41;98997.16;;;14.09
67515;BMP280;60646;55.802;37.032;2023-03-21T10:23:12;99000.44;;;14.15
67515;BMP280;60646;55.802;37.032;2023-03-21T10:25:45;98977.63;;;14.09
67515;BMP280;60646;55.802;37.032;2023-03-21T10:28:20;98985.75;;;14.17
67515;BMP280;60646;55.802;37.032;2023-03-21T10:30:52;98987.81;;;14.24
67515;BMP280;60646;55.802;37.032;2023-03-21T10:33:25;98970.75;;;14.21
67515;BMP280;60646;55.802;37.032;2023-03-21T10:35:55;98989.84;;;14.31
67515;BMP280;60646;55.802;37.032;2023-03-21T10:38:24;98962.00;;;14.21
67515;BMP280;60646;55.802;37.032;2023-03-21T10:40:52;98970.66;;;14.27
67515;BMP280;60646;55.802;37.032;2023-03-21T10:43:30;98981.13;;;14.38
67515;BMP280;60646;55.802;37.032;2023-03-21T10:46:08;98975.75;;;14.38
67515;BMP280;60646;55.802;37.032;2023-03-21T10:48:38;98964.22;;;14.30
67515;BMP280;60646;55.802;37.032;2023-03-21T10:51:07;98977.03;;;14.37
67515;BMP280;60646;55.802;37.032;2023-03-21T10:53:40;98927.66;;;14.06
67515;BMP280;60646;55.802;37.032;2023-03-21T10:56:11;98923.84;;;14.01
67515;BMP280;60646;55.802;37.032;2023-03-21T10:58:48;98942.06;;;14.16
67515;BMP280;60646;55.802;37.032;2023-03-21T11:01:35;98910.63;;;14.03
67515;BMP280;60646;55.802;37.032;2023-03-21T11:04:20;98912.06;;;14.04
67515;BMP280;60646;55.802;37.032;2023-03-21T11:07:02;98954.53;;;14.27
67515;BMP280;60646;55.802;37.032;2023-03-21T11:12:15;98930.81;;;14.18
67515;BMP280;60646;55.802;37.032;2023-03-21T11:14:45;98969.72;;;14.45
67515;BMP280;60646;55.802;37.032;2023-03-21T11:19:49;98967.63;;;14.51
67515;BMP280;60646;55.802;37.032;2023-03-21T11:22:15;98974.19;;;14.63
67515;BMP280;60646;55.802;37.032;2023-03-21T11:24:57;98944.94;;;14.39
67515;BMP280;60646;55.802;37.032;2023-03-21T11:27:29;98955.84;;;14.54
67515;BMP280;60646;55.802;37.032;2023-03-21T11:30:02;98970.97;;;14.64
67515;BMP280;60646;55.802;37.032;2023-03-21T11:32:36;98935.72;;;14.47
67515;BMP280;60646;55.802;37.032;2023-03-21T11:37:38;98934.72;;;14.58
67515;BMP280;60646;55.802;37.032;2023-03-21T11:40:25;98954.59;;;14.83
67515;BMP280;60646;55.802;37.032;2023-03-21T11:42:57;98940.22;;;14.73
67515;BMP280;60646;55.802;37.032;2023-03-21T11:45:25;98936.69;;;14.78
67515;BMP280;60646;55.802;37.032;2023-03-21T11:47:54;98948.56;;;14.90
67515;BMP280;60646;55.802;37.032;2023-03-21T11:50:33;98925.91;;;14.78
67515;BMP280;60646;55.802;37.032;2023-03-21T11:58:24;98941.97;;;14.99
67515;BMP280;60646;55.802;37.032;2023-03-21T12:01:06;98939.78;;;14.97
67515;BMP280;60646;55.802;37.032;2023-03-21T12:04:27;98920.41;;;14.91
67515;BMP280;60646;55.802;37.032;2023-03-21T12:06:44;98929.25;;;14.99
67515;BMP280;60646;55.802;37.032;2023-03-21T12:09:39;98929.09;;;15.05
67515;BMP280;60646;55.802;37.032;2023-03-21T12:12:13;98928.19;;;15.02
67515;BMP280;60646;55.802;37.032;2023-03-21T12:20:29;98920.72;;;15.08
67515;BMP280;60646;55.802;37.032;2023-03-21T12:25:38;98917.47;;;15.10
67515;BMP280;60646;55.802;37.032;2023-03-21T12:39:35;98917.03;;;14.98
67515;BMP280;60646;55.802;37.032;2023-03-21T12:45:03;98906.28;;;14.91
67515;BMP280;60646;55.802;37.032;2023-03-21T12:47:34;98889.28;;;14.67
67515;BMP280;60646;55.802;37.032;2023-03-21T12:50:07;98907.25;;;14.80
67515;BMP280;60646;55.802;37.032;2023-03-21T12:52:40;98891.56;;;14.63
67515;BMP280;60646;55.802;37.032;2023-03-21T12:55:16;98895.91;;;14.66
67515;BMP280;60646;55.802;37.032;2023-03-21T12:58:14;98901.13;;;14.72
67515;BMP280;60646;55.802;37.032;2023-03-21T13:00:55;98897.88;;;14.66
67515;BMP280;60646;55.802;37.032;2023-03-21T13:03:47;98902.00;;;14.67
67515;BMP280;60646;55.802;37.032;2023-03-21T13:06:17;98885.38;;;14.48
67515;BMP280;60646;55.802;37.032;2023-03-21T13:08:59;98881.59;;;14.43
67515;BMP280;60646;55.802;37.032;2023-03-21T13:11:31;98869.19;;;14.33
67515;BMP280;60646;55.802;37.032;2023-03-21T13:14:25;98843.81;;;14.21
67515;BMP280;60646;55.802;37.032;2023-03-21T13:17:01;98847.25;;;14.29
67515;BMP280;60646;55.802;37.032;2023-03-21T13:20:00;98895.00;;;14.64
67515;BMP280;60646;55.802;37.032;2023-03-21T13:22:40;98837.41;;;14.24
67515;BMP280;60646;55.802;37.032;2023-03-21T13:25:23;98832.03;;;14.24
67515;BMP280;60646;55.802;37.032;2023-03-21T13:28:24;98865.69;;;14.53
67515;BMP280;60646;55.802;37.032;2023-03-21T13:31:26;98841.03;;;14.34
67515;BMP280;60646;55.802;37.032;2023-03-21T13:34:14;98864.09;;;14.50
67515;BMP280;60646;55.802;37.032;2023-03-21T13:37:38;98823.06;;;14.29
67515;BMP280;60646;55.802;37.032;2023-03-21T13:40:11;98865.06;;;14.60
67515;BMP280;60646;55.802;37.032;2023-03-21T13:42:53;98876.72;;;14.70
67515;BMP280;60646;55.802;37.032;2023-03-21T13:47:52;98871.91;;;14.68
67515;BMP280;60646;55.802;37.032;2023-03-21T13:50:24;98862.56;;;14.69
67515;BMP280;60646;55.802;37.032;2023-03-21T13:53:08;98869.59;;;14.72
67515;BMP280;60646;55.802;37.032;2023-03-21T13:55:41;98849.63;;;14.60
67515;BMP280;60646;55.802;37.032;2023-03-21T13:58:36;98861.69;;;14.67
67515;BMP280;60646;55.802;37.032;2023-03-21T14:03:44;98851.63;;;14.60
67515;BMP280;60646;55.802;37.032;2023-03-21T14:06:14;98860.22;;;14.66
67515;BMP280;60646;55.802;37.032;2023-03-21T14:08:46;98867.44;;;14.71
67515;BMP280;60646;55.802;37.032;2023-03-21T14:11:17;98844.56;;;14.57
67515;BMP280;60646;55.802;37.032;2023-03-21T14:13:49;98844.41;;;14.55
67515;BMP280;60646;55.802;37.032;2023-03-21T14:16:27;98859.84;;;14.62
67515;BMP280;60646;55.802;37.032;2023-03-21T14:19:03;98814.88;;;14.34
67515;BMP280;60646;55.802;37.032;2023-03-21T14:21:47;98837.59;;;14.54
67515;BMP280;60646;55.802;37.032;2023-03-21T14:24:19;98796.75;;;14.27
67515;BMP280;60646;55.802;37.032;2023-03-21T14:26:55;98803.38;;;14.26
67515;BMP280;60646;55.802;37.032;2023-03-21T14:29:33;98826.72;;;14.39
67515;BMP280;60646;55.802;37.032;2023-03-21T14:31:59;98841.47;;;14.45
67515;BMP280;60646;55.802;37.032;2023-03-21T14:34:28;98853.91;;;14.56
67515;BMP280;60646;55.802;37.032;2023-03-21T14:37:06;98854.78;;;14.51
67515;BMP280;60646;55.802;37.032;2023-03-21T14:39:32;98857.44;;;14.51
67515;BMP280;60646;55.802;37.032;2023-03-21T14:42:07;98846.13;;;14.45
67515;BMP280;60646;55.802;37.032;2023-03-21T14:44:38;98844.69;;;14.44
67515;BMP280;60646;55.802;37.032;2023-03-21T14:47:28;98846.97;;;14.40
67515;BMP280;60646;55.802;37.032;2023-03-21T14:49:55;98835.84;;;14.36
67515;BMP280;60646;55.802;37.032;2023-03-21T14:52:28;98849.28;;;14.36
67515;BMP280;60646;55.802;37.032;2023-03-21T14:54:56;98848.31;;;14.26
67515;BMP280;60646;55.802;37.032;2023-03-21T14:57:30;98858.44;;;14.33
67515;BMP280;60646;55.802;37.032;2023-03-21T15:00:02;98852.13;;;14.30
67515;BMP280;60646;55.802;37.032;2023-03-21T15:02:39;98855.19;;;14.34
67515;BMP280;60646;55.802;37.032;2023-03-21T15:07:57;98848.06;;;14.16
67515;BMP280;60646;55.802;37.032;2023-03-21T15:10:25;98831.84;;;14.01
67515;BMP280;60646;55.802;37.032;2023-03-21T15:12:55;98852.69;;;14.15
67515;BMP280;60646;55.802;37.032;2023-03-21T15:15:26;98858.03;;;14.08
67515;BMP280;60646;55.802;37.032;2023-03-21T15:17:53;98854.22;;;14.03
67515;BMP280;60646;55.802;37.032;2023-03-21T15:20:25;98852.41;;;13.98
67515;BMP280;60646;55.802;37.032;2023-03-21T15:23:00;98841.41;;;13.89
67515;BMP280;60646;55.802;37.032;2023-03-21T15:25:30;98864.78;;;14.01
67515;BMP280;60646;55.802;37.032;2023-03-21T15:28:04;98869.00;;;13.97
67515;BMP280;60646;55.802;37.032;2023-03-21T15:30:39;98873.72;;;13.96
67515;BMP280;60646;55.802;37.032;2023-03-21T15:33:11;98863.16;;;13.78
67515;BMP280;60646;55.802;37.032;2023-03-21T15:35:43;98863.66;;;13.76
67515;BMP280;60646;55.802;37.032;2023-03-21T15:38:31;98891.19;;;13.90
67515;BMP280;60646;55.802;37.032;2023-03-21T15:46:47;98885.88;;;13.77
67515;BMP280;60646;55.802;37.032;2023-03-21T15:49:33;98890.28;;;13.74
67515;BMP280;60646;55.802;37.032;2023-03-21T15:54:47;98878.69;;;13.59
67515;BMP280;60646;55.802;37.032;2023-03-21T15:59:45;98874.69;;;13.52